RYR6KN LIRF-LYBE
Flight info
| Callsign | RYR6KN |
|---|---|
| Flight time | 1h 18m |
| Altitude | 34000 |
| Route | OKUNO DCT ATRUP DCT VAPUP/N0444F350 DCT REMPI DCT SOMUN L5 ENUPU |
| Aircraft | B738/M-SDE2E3FGHIRWXY/LB1 |
Departure
| Time | 2026-02-17 11:57 |
|---|---|
| Airport | Rome–Fiumicino Leonardo da Vinci International Airport (LIRF) |
Arrival
| Time | 2026-02-17 13:15 |
|---|---|
| Airport | Belgrade Nikola Tesla Airport (LYBE) |
| Time | Latitude | Longitude | Altitude | Speed | Heading |
|---|---|---|---|---|---|
| 2026-02-17 11:10 | 41.79830 | 12.25547 | 13 ft | 0 kts | 115° |
| 2026-02-17 11:41 | 41.79833 | 12.25539 | 13 ft | 2 kts | 115° |
| 2026-02-17 11:41 | 41.79841 | 12.25515 | 16 ft | 3 kts | 115° |
| 2026-02-17 11:41 | 41.79849 | 12.25492 | 16 ft | 3 kts | 135° |
| 2026-02-17 11:42 | 41.79845 | 12.25482 | 15 ft | 3 kts | 205° |
| 2026-02-17 11:42 | 41.79844 | 12.25482 | 15 ft | 2 kts | 205° |
| 2026-02-17 11:42 | 41.79828 | 12.25470 | 14 ft | 3 kts | 209° |
| 2026-02-17 11:43 | 41.79802 | 12.25451 | 13 ft | 1 kts | 208° |
| 2026-02-17 11:43 | 41.79785 | 12.25438 | 14 ft | 0 kts | 28° |
| 2026-02-17 11:47 | 41.79818 | 12.25463 | 13 ft | 4 kts | 27° |
| 2026-02-17 11:47 | 41.79843 | 12.25478 | 14 ft | 4 kts | 25° |
| 2026-02-17 11:47 | 41.79867 | 12.25493 | 15 ft | 4 kts | 25° |
| 2026-02-17 11:47 | 41.79896 | 12.25510 | 14 ft | 5 kts | 24° |
| 2026-02-17 11:48 | 41.79924 | 12.25529 | 13 ft | 5 kts | 26° |
| 2026-02-17 11:48 | 41.79959 | 12.25551 | 13 ft | 7 kts | 24° |
| 2026-02-17 11:48 | 41.80003 | 12.25568 | 13 ft | 7 kts | 351° |
| 2026-02-17 11:48 | 41.80032 | 12.25520 | 13 ft | 7 kts | 295° |
| 2026-02-17 11:49 | 41.80051 | 12.25465 | 14 ft | 7 kts | 295° |
| 2026-02-17 11:49 | 41.80070 | 12.25411 | 13 ft | 6 kts | 298° |
| 2026-02-17 11:49 | 41.80102 | 12.25372 | 13 ft | 6 kts | 341° |
| 2026-02-17 11:49 | 41.80146 | 12.25378 | 13 ft | 7 kts | 16° |
| 2026-02-17 11:50 | 41.80197 | 12.25403 | 13 ft | 9 kts | 21° |
| 2026-02-17 11:50 | 41.80252 | 12.25430 | 14 ft | 8 kts | 20° |
| 2026-02-17 11:50 | 41.80303 | 12.25462 | 15 ft | 8 kts | 39° |
| 2026-02-17 11:51 | 41.80354 | 12.25606 | 15 ft | 9 kts | 70° |
| 2026-02-17 11:51 | 41.80374 | 12.25680 | 17 ft | 9 kts | 70° |
| 2026-02-17 11:51 | 41.80400 | 12.25771 | 14 ft | 11 kts | 70° |
| 2026-02-17 11:51 | 41.80427 | 12.25870 | 14 ft | 11 kts | 70° |
| 2026-02-17 11:52 | 41.80453 | 12.25967 | 14 ft | 11 kts | 70° |
| 2026-02-17 11:52 | 41.80479 | 12.26060 | 15 ft | 11 kts | 70° |
| 2026-02-17 11:52 | 41.80505 | 12.26152 | 17 ft | 11 kts | 70° |
| 2026-02-17 11:52 | 41.80529 | 12.26242 | 15 ft | 10 kts | 70° |
| 2026-02-17 11:53 | 41.80553 | 12.26330 | 15 ft | 10 kts | 70° |
| 2026-02-17 11:53 | 41.80577 | 12.26416 | 15 ft | 10 kts | 69° |
| 2026-02-17 11:53 | 41.80602 | 12.26506 | 15 ft | 11 kts | 70° |
| 2026-02-17 11:53 | 41.80628 | 12.26599 | 14 ft | 11 kts | 70° |
| 2026-02-17 11:54 | 41.80655 | 12.26698 | 14 ft | 11 kts | 70° |
| 2026-02-17 11:54 | 41.80682 | 12.26795 | 13 ft | 11 kts | 70° |
| 2026-02-17 11:54 | 41.80708 | 12.26889 | 13 ft | 11 kts | 70° |
| 2026-02-17 11:55 | 41.80775 | 12.27045 | 12 ft | 9 kts | 19° |
| 2026-02-17 11:55 | 41.80832 | 12.27029 | 13 ft | 8 kts | 339° |
| 2026-02-17 11:55 | 41.80885 | 12.27003 | 12 ft | 8 kts | 339° |
| 2026-02-17 11:55 | 41.80936 | 12.26976 | 14 ft | 7 kts | 339° |
| 2026-02-17 11:56 | 41.80959 | 12.26941 | 11 ft | 5 kts | 275° |
| 2026-02-17 11:56 | 41.80954 | 12.26916 | 12 ft | 0 kts | 250° |
| 2026-02-17 11:56 | 41.80953 | 12.26909 | 12 ft | 4 kts | 250° |
| 2026-02-17 11:56 | 41.80879 | 12.26638 | 13 ft | 65 kts | 250° |
| 2026-02-17 11:57 | 41.80643 | 12.25786 | 17 ft | 128 kts | 250° |
| 2026-02-17 11:57 | 41.80265 | 12.24507 | 287 ft | 154 kts | 250° |
| 2026-02-17 11:57 | 41.79844 | 12.23232 | 1101 ft | 152 kts | 255° |
| 2026-02-17 11:57 | 41.79443 | 12.21831 | 1578 ft | 167 kts | 259° |
| 2026-02-17 11:58 | 41.79089 | 12.20319 | 2123 ft | 184 kts | 251° |
| 2026-02-17 11:58 | 41.78111 | 12.19025 | 2525 ft | 212 kts | 215° |
| 2026-02-17 11:58 | 41.76850 | 12.17962 | 3077 ft | 216 kts | 218° |
| 2026-02-17 11:59 | 41.74255 | 12.15627 | 3879 ft | 242 kts | 219° |
| 2026-02-17 11:59 | 41.72848 | 12.14315 | 4225 ft | 257 kts | 219° |
| 2026-02-17 11:59 | 41.71324 | 12.12900 | 4586 ft | 277 kts | 219° |
| 2026-02-17 11:59 | 41.69719 | 12.11418 | 5281 ft | 283 kts | 218° |
| 2026-02-17 12:00 | 41.68091 | 12.09919 | 6108 ft | 284 kts | 218° |
| 2026-02-17 12:00 | 41.66426 | 12.08486 | 6852 ft | 290 kts | 208° |
| 2026-02-17 12:00 | 41.64410 | 12.07959 | 7591 ft | 299 kts | 176° |
| 2026-02-17 12:00 | 41.62443 | 12.08763 | 8282 ft | 304 kts | 147° |
| 2026-02-17 12:01 | 41.60992 | 12.10724 | 8963 ft | 303 kts | 115° |
| 2026-02-17 12:01 | 41.60310 | 12.13355 | 9686 ft | 300 kts | 99° |
| 2026-02-17 12:01 | 41.59817 | 12.16143 | 10180 ft | 313 kts | 98° |
| 2026-02-17 12:01 | 41.59312 | 12.19036 | 10331 ft | 335 kts | 99° |
| 2026-02-17 12:02 | 41.58746 | 12.22147 | 10623 ft | 352 kts | 100° |
| 2026-02-17 12:02 | 41.58154 | 12.25355 | 11185 ft | 358 kts | 97° |
| 2026-02-17 12:02 | 41.58093 | 12.28626 | 11859 ft | 350 kts | 73° |
| 2026-02-17 12:03 | 41.60414 | 12.34006 | 13372 ft | 333 kts | 37° |
| 2026-02-17 12:03 | 41.62139 | 12.36087 | 13746 ft | 335 kts | 36° |
| 2026-02-17 12:03 | 41.63897 | 12.38148 | 13765 ft | 336 kts | 36° |
| 2026-02-17 12:03 | 41.65634 | 12.40243 | 13767 ft | 336 kts | 37° |
| 2026-02-17 12:04 | 41.67347 | 12.42366 | 13780 ft | 336 kts | 37° |
| 2026-02-17 12:04 | 41.69060 | 12.44508 | 13778 ft | 337 kts | 37° |
| 2026-02-17 12:04 | 41.70788 | 12.46670 | 14014 ft | 343 kts | 37° |
| 2026-02-17 12:04 | 41.72527 | 12.48848 | 14809 ft | 342 kts | 37° |
| 2026-02-17 12:05 | 41.74262 | 12.51023 | 15669 ft | 342 kts | 37° |
| 2026-02-17 12:05 | 41.76009 | 12.53208 | 16392 ft | 345 kts | 36° |
| 2026-02-17 12:05 | 41.77770 | 12.55413 | 17091 ft | 349 kts | 36° |
| 2026-02-17 12:05 | 41.79550 | 12.57641 | 17793 ft | 352 kts | 36° |
| 2026-02-17 12:06 | 41.81385 | 12.59825 | 18449 ft | 351 kts | 30° |
| 2026-02-17 12:06 | 41.83348 | 12.61738 | 19108 ft | 349 kts | 26° |
| 2026-02-17 12:06 | 41.85356 | 12.63560 | 19784 ft | 349 kts | 25° |
| 2026-02-17 12:07 | 41.89392 | 12.67222 | 21076 ft | 352 kts | 24° |
| 2026-02-17 12:07 | 41.91407 | 12.69085 | 21687 ft | 354 kts | 24° |
| 2026-02-17 12:07 | 41.93450 | 12.70994 | 22224 ft | 358 kts | 24° |
| 2026-02-17 12:07 | 41.95497 | 12.72920 | 22826 ft | 360 kts | 24° |
| 2026-02-17 12:08 | 41.97521 | 12.74831 | 23422 ft | 361 kts | 23° |
| 2026-02-17 12:08 | 41.99576 | 12.76773 | 23911 ft | 362 kts | 22° |
| 2026-02-17 12:08 | 42.01620 | 12.78701 | 24363 ft | 366 kts | 23° |
| 2026-02-17 12:08 | 42.03634 | 12.80892 | 24748 ft | 385 kts | 34° |
| 2026-02-17 12:09 | 42.05250 | 12.83928 | 24970 ft | 414 kts | 48° |
| 2026-02-17 12:09 | 42.06606 | 12.87330 | 25569 ft | 411 kts | 48° |
| 2026-02-17 12:09 | 42.07985 | 12.90713 | 25849 ft | 414 kts | 47° |
| 2026-02-17 12:09 | 42.09401 | 12.94106 | 26193 ft | 417 kts | 46° |
| 2026-02-17 12:10 | 42.10836 | 12.97519 | 26609 ft | 419 kts | 46° |
| 2026-02-17 12:10 | 42.12239 | 13.00975 | 27022 ft | 423 kts | 47° |
| 2026-02-17 12:10 | 42.13615 | 13.04480 | 27377 ft | 427 kts | 47° |
| 2026-02-17 12:11 | 42.16387 | 13.11597 | 28044 ft | 432 kts | 47° |
| 2026-02-17 12:11 | 42.17779 | 13.15192 | 28433 ft | 435 kts | 48° |
| 2026-02-17 12:11 | 42.19192 | 13.18833 | 28655 ft | 441 kts | 48° |
| 2026-02-17 12:11 | 42.20618 | 13.22507 | 29014 ft | 443 kts | 48° |
| 2026-02-17 12:12 | 42.22045 | 13.26196 | 29393 ft | 444 kts | 48° |
| 2026-02-17 12:12 | 42.23474 | 13.29894 | 29779 ft | 444 kts | 48° |
| 2026-02-17 12:12 | 42.24903 | 13.33593 | 30202 ft | 444 kts | 49° |
| 2026-02-17 12:12 | 42.26327 | 13.37282 | 30605 ft | 443 kts | 49° |
| 2026-02-17 12:13 | 42.27755 | 13.40982 | 30910 ft | 444 kts | 49° |
| 2026-02-17 12:13 | 42.29186 | 13.44690 | 31253 ft | 445 kts | 49° |
| 2026-02-17 12:13 | 42.30592 | 13.48345 | 31610 ft | 444 kts | 49° |
| 2026-02-17 12:13 | 42.32036 | 13.52102 | 31943 ft | 446 kts | 50° |
| 2026-02-17 12:14 | 42.33473 | 13.55834 | 32122 ft | 449 kts | 50° |
| 2026-02-17 12:14 | 42.34917 | 13.59579 | 32426 ft | 449 kts | 49° |
| 2026-02-17 12:14 | 42.36436 | 13.63225 | 32824 ft | 443 kts | 47° |
| 2026-02-17 12:15 | 42.39621 | 13.70255 | 33438 ft | 441 kts | 45° |
| 2026-02-17 12:15 | 42.41253 | 13.73787 | 33703 ft | 443 kts | 46° |
| 2026-02-17 12:15 | 42.42879 | 13.77329 | 33933 ft | 443 kts | 46° |
| 2026-02-17 12:15 | 42.44495 | 13.80883 | 34205 ft | 444 kts | 46° |
| 2026-02-17 12:16 | 42.46105 | 13.84453 | 34443 ft | 444 kts | 46° |
| 2026-02-17 12:16 | 42.47715 | 13.88038 | 34656 ft | 446 kts | 47° |
| 2026-02-17 12:16 | 42.49328 | 13.91641 | 34722 ft | 448 kts | 47° |
| 2026-02-17 12:17 | 42.52539 | 13.98856 | 34750 ft | 447 kts | 47° |
| 2026-02-17 12:17 | 42.55676 | 14.05918 | 34755 ft | 448 kts | 47° |
| 2026-02-17 12:18 | 42.58895 | 14.13172 | 34767 ft | 449 kts | 48° |
| 2026-02-17 12:18 | 42.62110 | 14.20440 | 34771 ft | 450 kts | 48° |
| 2026-02-17 12:19 | 42.66946 | 14.31402 | 34775 ft | 452 kts | 49° |
| 2026-02-17 12:19 | 42.70172 | 14.38739 | 34760 ft | 452 kts | 49° |
| 2026-02-17 12:20 | 42.73375 | 14.46041 | 34765 ft | 453 kts | 49° |
| 2026-02-17 12:20 | 42.76600 | 14.53413 | 34750 ft | 453 kts | 49° |
| 2026-02-17 12:21 | 42.79782 | 14.60703 | 34753 ft | 454 kts | 49° |
| 2026-02-17 12:21 | 42.83010 | 14.68118 | 34742 ft | 455 kts | 49° |
| 2026-02-17 12:22 | 42.86237 | 14.75549 | 34745 ft | 456 kts | 49° |
| 2026-02-17 12:23 | 42.91069 | 14.86717 | 34744 ft | 455 kts | 49° |
| 2026-02-17 12:23 | 42.94273 | 14.94146 | 34750 ft | 454 kts | 50° |
| 2026-02-17 12:24 | 42.97424 | 15.01472 | 34741 ft | 453 kts | 50° |
| 2026-02-17 12:24 | 43.00600 | 15.08878 | 34729 ft | 452 kts | 50° |
| 2026-02-17 12:25 | 43.03772 | 15.16292 | 34742 ft | 452 kts | 50° |
| 2026-02-17 12:25 | 43.06946 | 15.23702 | 34724 ft | 451 kts | 50° |
| 2026-02-17 12:26 | 43.10142 | 15.31078 | 34732 ft | 451 kts | 51° |
| 2026-02-17 12:26 | 43.13314 | 15.38410 | 34713 ft | 450 kts | 51° |
| 2026-02-17 12:27 | 43.18100 | 15.49543 | 34731 ft | 450 kts | 51° |
| 2026-02-17 12:27 | 43.21250 | 15.56903 | 34716 ft | 451 kts | 51° |
| 2026-02-17 12:28 | 43.24438 | 15.64370 | 34719 ft | 451 kts | 52° |
| 2026-02-17 12:28 | 43.27580 | 15.71751 | 34711 ft | 451 kts | 52° |
| 2026-02-17 12:29 | 43.30742 | 15.79197 | 34695 ft | 451 kts | 52° |
| 2026-02-17 12:29 | 43.33896 | 15.86641 | 34704 ft | 451 kts | 52° |
| 2026-02-17 12:30 | 43.37049 | 15.94104 | 34681 ft | 452 kts | 52° |
| 2026-02-17 12:31 | 43.41730 | 16.05218 | 34675 ft | 452 kts | 53° |
| 2026-02-17 12:31 | 43.44879 | 16.12719 | 34665 ft | 452 kts | 53° |
| 2026-02-17 12:32 | 43.48022 | 16.20225 | 34677 ft | 453 kts | 54° |
| 2026-02-17 12:32 | 43.51163 | 16.27749 | 34671 ft | 453 kts | 54° |
| 2026-02-17 12:33 | 43.53771 | 16.34010 | 34660 ft | 454 kts | 54° |
| 2026-02-17 12:33 | 43.57420 | 16.42795 | 34655 ft | 454 kts | 54° |
| 2026-02-17 12:34 | 43.60552 | 16.50355 | 34654 ft | 454 kts | 54° |
| 2026-02-17 12:34 | 43.63171 | 16.56694 | 34653 ft | 454 kts | 54° |
| 2026-02-17 12:35 | 43.67852 | 16.68063 | 34658 ft | 454 kts | 54° |
| 2026-02-17 12:35 | 43.70966 | 16.75658 | 34657 ft | 455 kts | 55° |
| 2026-02-17 12:36 | 43.74055 | 16.83203 | 34672 ft | 455 kts | 56° |
| 2026-02-17 12:36 | 43.77103 | 16.90898 | 34668 ft | 456 kts | 57° |
| 2026-02-17 12:37 | 43.80114 | 16.98642 | 34689 ft | 457 kts | 56° |
| 2026-02-17 12:37 | 43.83074 | 17.06273 | 34687 ft | 457 kts | 56° |
| 2026-02-17 12:38 | 43.86081 | 17.14024 | 34713 ft | 456 kts | 56° |
| 2026-02-17 12:39 | 43.90582 | 17.25653 | 34713 ft | 457 kts | 57° |
| 2026-02-17 12:39 | 43.93583 | 17.33429 | 34719 ft | 457 kts | 58° |
| 2026-02-17 12:40 | 43.96583 | 17.41225 | 34720 ft | 457 kts | 58° |
| 2026-02-17 12:40 | 43.99574 | 17.49024 | 34718 ft | 458 kts | 58° |
| 2026-02-17 12:41 | 44.02552 | 17.56810 | 34728 ft | 458 kts | 58° |
| 2026-02-17 12:41 | 44.05540 | 17.64645 | 34719 ft | 459 kts | 58° |
| 2026-02-17 12:42 | 44.08521 | 17.72494 | 34727 ft | 459 kts | 58° |
| 2026-02-17 12:42 | 44.11504 | 17.80359 | 34708 ft | 460 kts | 59° |
| 2026-02-17 12:43 | 44.15981 | 17.92197 | 34709 ft | 460 kts | 59° |
| 2026-02-17 12:43 | 44.17429 | 17.96038 | 34669 ft | 448 kts | 59° |
| 2026-02-17 12:43 | 44.18859 | 17.99840 | 34462 ft | 440 kts | 59° |
| 2026-02-17 12:44 | 44.20236 | 18.03503 | 34150 ft | 436 kts | 59° |
| 2026-02-17 12:44 | 44.21639 | 18.07239 | 33793 ft | 433 kts | 59° |
| 2026-02-17 12:44 | 44.23028 | 18.10944 | 33343 ft | 431 kts | 59° |
| 2026-02-17 12:44 | 44.24411 | 18.14636 | 32978 ft | 428 kts | 59° |
| 2026-02-17 12:45 | 44.25781 | 18.18301 | 32575 ft | 425 kts | 60° |
| 2026-02-17 12:45 | 44.27144 | 18.21951 | 32191 ft | 422 kts | 60° |
| 2026-02-17 12:45 | 44.28493 | 18.25569 | 31815 ft | 419 kts | 61° |
| 2026-02-17 12:45 | 44.29831 | 18.29162 | 31465 ft | 416 kts | 61° |
| 2026-02-17 12:46 | 44.31163 | 18.32747 | 31100 ft | 414 kts | 61° |
| 2026-02-17 12:46 | 44.32484 | 18.36301 | 30746 ft | 411 kts | 62° |
| 2026-02-17 12:46 | 44.33795 | 18.39834 | 30385 ft | 409 kts | 62° |
| 2026-02-17 12:47 | 44.36395 | 18.46850 | 29668 ft | 405 kts | 63° |
| 2026-02-17 12:47 | 44.37673 | 18.50307 | 29243 ft | 402 kts | 63° |
| 2026-02-17 12:47 | 44.38948 | 18.53764 | 28882 ft | 397 kts | 63° |
| 2026-02-17 12:47 | 44.40203 | 18.57169 | 28492 ft | 394 kts | 63° |
| 2026-02-17 12:48 | 44.41444 | 18.60551 | 28157 ft | 390 kts | 63° |
| 2026-02-17 12:48 | 44.42668 | 18.63930 | 27786 ft | 388 kts | 64° |
| 2026-02-17 12:48 | 44.43888 | 18.67271 | 27456 ft | 384 kts | 64° |
| 2026-02-17 12:48 | 44.45106 | 18.70590 | 27098 ft | 382 kts | 64° |
| 2026-02-17 12:49 | 44.46315 | 18.73885 | 26740 ft | 380 kts | 64° |
| 2026-02-17 12:49 | 44.47520 | 18.77169 | 26393 ft | 378 kts | 64° |
| 2026-02-17 12:49 | 44.48716 | 18.80438 | 26033 ft | 376 kts | 64° |
| 2026-02-17 12:49 | 44.49906 | 18.83695 | 25680 ft | 375 kts | 64° |
| 2026-02-17 12:50 | 44.51091 | 18.86943 | 25344 ft | 372 kts | 64° |
| 2026-02-17 12:50 | 44.52264 | 18.90162 | 25001 ft | 370 kts | 64° |
| 2026-02-17 12:50 | 44.53431 | 18.93368 | 24661 ft | 368 kts | 64° |
| 2026-02-17 12:51 | 44.55742 | 18.99732 | 23991 ft | 364 kts | 64° |
| 2026-02-17 12:51 | 44.56833 | 19.02740 | 23684 ft | 363 kts | 64° |
| 2026-02-17 12:51 | 44.57957 | 19.05844 | 23359 ft | 361 kts | 64° |
| 2026-02-17 12:51 | 44.59073 | 19.09042 | 22962 ft | 359 kts | 69° |
| 2026-02-17 12:52 | 44.59800 | 19.12320 | 22653 ft | 353 kts | 81° |
| 2026-02-17 12:52 | 44.60120 | 19.15731 | 22375 ft | 348 kts | 86° |
| 2026-02-17 12:52 | 44.60355 | 19.19079 | 22086 ft | 344 kts | 86° |
| 2026-02-17 12:52 | 44.60598 | 19.22412 | 21802 ft | 341 kts | 86° |
| 2026-02-17 12:53 | 44.60850 | 19.25701 | 21540 ft | 338 kts | 85° |
| 2026-02-17 12:53 | 44.61112 | 19.28973 | 21275 ft | 336 kts | 85° |
| 2026-02-17 12:53 | 44.61373 | 19.32223 | 20999 ft | 334 kts | 85° |
| 2026-02-17 12:53 | 44.61707 | 19.35417 | 20743 ft | 331 kts | 75° |
| 2026-02-17 12:54 | 44.62743 | 19.38283 | 20505 ft | 329 kts | 56° |
| 2026-02-17 12:54 | 44.64122 | 19.40849 | 20178 ft | 329 kts | 53° |
| 2026-02-17 12:54 | 44.65544 | 19.43330 | 19865 ft | 327 kts | 52° |
| 2026-02-17 12:55 | 44.68398 | 19.48282 | 19252 ft | 324 kts | 52° |
| 2026-02-17 12:55 | 44.69808 | 19.50758 | 18971 ft | 324 kts | 53° |
| 2026-02-17 12:55 | 44.71215 | 19.53247 | 18650 ft | 326 kts | 53° |
| 2026-02-17 12:55 | 44.72622 | 19.55744 | 18333 ft | 326 kts | 52° |
| 2026-02-17 12:56 | 44.74028 | 19.58249 | 18007 ft | 326 kts | 52° |
| 2026-02-17 12:56 | 44.75429 | 19.60753 | 17666 ft | 324 kts | 52° |
| 2026-02-17 12:56 | 44.76790 | 19.63192 | 17344 ft | 321 kts | 52° |
| 2026-02-17 12:56 | 44.78163 | 19.65655 | 17032 ft | 318 kts | 52° |
| 2026-02-17 12:57 | 44.79526 | 19.68103 | 16728 ft | 315 kts | 51° |
| 2026-02-17 12:57 | 44.80874 | 19.70524 | 16421 ft | 313 kts | 51° |
| 2026-02-17 12:57 | 44.82209 | 19.72925 | 16125 ft | 310 kts | 50° |
| 2026-02-17 12:57 | 44.83532 | 19.75305 | 15809 ft | 308 kts | 50° |
| 2026-02-17 12:58 | 44.84850 | 19.77676 | 15500 ft | 306 kts | 52° |
| 2026-02-17 12:58 | 44.86147 | 19.80015 | 15187 ft | 305 kts | 51° |
| 2026-02-17 12:58 | 44.87449 | 19.82364 | 14883 ft | 303 kts | 52° |
| 2026-02-17 12:59 | 44.88537 | 19.87952 | 14221 ft | 308 kts | 97° |
| 2026-02-17 12:59 | 44.87827 | 19.90809 | 13887 ft | 313 kts | 116° |
| 2026-02-17 12:59 | 44.86714 | 19.93444 | 13576 ft | 312 kts | 120° |
| 2026-02-17 12:59 | 44.85554 | 19.96036 | 13215 ft | 312 kts | 120° |
| 2026-02-17 13:00 | 44.84388 | 19.98617 | 12873 ft | 312 kts | 119° |
| 2026-02-17 13:00 | 44.83269 | 20.01110 | 12554 ft | 310 kts | 119° |
| 2026-02-17 13:00 | 44.82122 | 20.03679 | 12236 ft | 309 kts | 119° |
| 2026-02-17 13:00 | 44.80986 | 20.06236 | 11928 ft | 308 kts | 119° |
| 2026-02-17 13:01 | 44.79855 | 20.08790 | 11630 ft | 306 kts | 118° |
| 2026-02-17 13:01 | 44.78731 | 20.11333 | 11312 ft | 305 kts | 118° |
| 2026-02-17 13:01 | 44.77613 | 20.13862 | 11024 ft | 304 kts | 118° |
| 2026-02-17 13:01 | 44.76496 | 20.16389 | 10715 ft | 304 kts | 118° |
| 2026-02-17 13:02 | 44.75381 | 20.18911 | 10402 ft | 303 kts | 117° |
| 2026-02-17 13:02 | 44.74271 | 20.21422 | 10089 ft | 303 kts | 117° |
| 2026-02-17 13:02 | 44.73157 | 20.23937 | 9840 ft | 300 kts | 117° |
| 2026-02-17 13:03 | 44.71009 | 20.28768 | 9385 ft | 284 kts | 116° |
| 2026-02-17 13:03 | 44.69988 | 20.31062 | 9322 ft | 273 kts | 116° |
| 2026-02-17 13:03 | 44.68990 | 20.33312 | 9103 ft | 270 kts | 116° |
| 2026-02-17 13:03 | 44.67994 | 20.35554 | 8844 ft | 270 kts | 116° |
| 2026-02-17 13:04 | 44.67000 | 20.37788 | 8577 ft | 269 kts | 116° |
| 2026-02-17 13:04 | 44.66005 | 20.40020 | 8337 ft | 270 kts | 116° |
| 2026-02-17 13:04 | 44.65008 | 20.42258 | 8063 ft | 271 kts | 116° |
| 2026-02-17 13:04 | 44.64010 | 20.44497 | 7822 ft | 271 kts | 117° |
| 2026-02-17 13:05 | 44.63632 | 20.45343 | 7725 ft | 270 kts | 117° |
| 2026-02-17 13:05 | 44.62682 | 20.47466 | 7457 ft | 270 kts | 117° |
| 2026-02-17 13:05 | 44.61683 | 20.49698 | 7200 ft | 269 kts | 117° |
| 2026-02-17 13:06 | 44.60688 | 20.51921 | 6951 ft | 268 kts | 117° |
| 2026-02-17 13:06 | 44.59705 | 20.54117 | 6854 ft | 266 kts | 116° |
| 2026-02-17 13:06 | 44.58730 | 20.56294 | 6719 ft | 267 kts | 117° |
| 2026-02-17 13:07 | 44.56921 | 20.60837 | 6156 ft | 270 kts | 93° |
| 2026-02-17 13:07 | 44.57143 | 20.63321 | 5860 ft | 253 kts | 59° |
| 2026-02-17 13:07 | 44.58191 | 20.65193 | 5655 ft | 240 kts | 36° |
| 2026-02-17 13:07 | 44.59620 | 20.66326 | 5443 ft | 235 kts | 16° |
| 2026-02-17 13:08 | 44.61233 | 20.66579 | 5232 ft | 233 kts | 355° |
| 2026-02-17 13:08 | 44.62790 | 20.65993 | 5033 ft | 234 kts | 335° |
| 2026-02-17 13:08 | 44.64129 | 20.64701 | 4844 ft | 234 kts | 326° |
| 2026-02-17 13:08 | 44.65419 | 20.63310 | 4640 ft | 232 kts | 326° |
| 2026-02-17 13:09 | 44.66692 | 20.61933 | 4451 ft | 229 kts | 326° |
| 2026-02-17 13:09 | 44.67942 | 20.60583 | 4282 ft | 225 kts | 326° |
| 2026-02-17 13:09 | 44.69154 | 20.59201 | 4077 ft | 226 kts | 317° |
| 2026-02-17 13:09 | 44.70055 | 20.57373 | 3912 ft | 227 kts | 305° |
| 2026-02-17 13:10 | 44.70908 | 20.55533 | 3744 ft | 221 kts | 308° |
| 2026-02-17 13:10 | 44.71736 | 20.53756 | 3543 ft | 214 kts | 306° |
| 2026-02-17 13:10 | 44.72500 | 20.52029 | 3360 ft | 202 kts | 306° |
| 2026-02-17 13:11 | 44.73876 | 20.48904 | 3034 ft | 172 kts | 307° |
| 2026-02-17 13:11 | 44.74478 | 20.47546 | 2819 ft | 155 kts | 307° |
| 2026-02-17 13:11 | 44.75011 | 20.46340 | 2655 ft | 141 kts | 307° |
| 2026-02-17 13:11 | 44.75524 | 20.45180 | 2472 ft | 137 kts | 307° |
| 2026-02-17 13:12 | 44.76019 | 20.44067 | 2269 ft | 135 kts | 308° |
| 2026-02-17 13:12 | 44.76521 | 20.42929 | 2113 ft | 136 kts | 306° |
| 2026-02-17 13:12 | 44.77011 | 20.41822 | 1938 ft | 133 kts | 306° |
| 2026-02-17 13:12 | 44.77512 | 20.40691 | 1752 ft | 135 kts | 305° |
| 2026-02-17 13:13 | 44.78001 | 20.39585 | 1570 ft | 134 kts | 305° |
| 2026-02-17 13:13 | 44.78500 | 20.38459 | 1408 ft | 134 kts | 306° |
| 2026-02-17 13:13 | 44.78983 | 20.37364 | 1243 ft | 135 kts | 305° |
| 2026-02-17 13:13 | 44.79481 | 20.36243 | 1019 ft | 135 kts | 305° |
| 2026-02-17 13:14 | 44.79967 | 20.35152 | 831 ft | 132 kts | 304° |
| 2026-02-17 13:14 | 44.80452 | 20.34036 | 611 ft | 131 kts | 304° |
| 2026-02-17 13:14 | 44.80935 | 20.32953 | 432 ft | 135 kts | 303° |
| 2026-02-17 13:15 | 44.81881 | 20.30830 | 308 ft | 104 kts | 302° |
| 2026-02-17 13:15 | 44.82186 | 20.30145 | 303 ft | 61 kts | 302° |
| 2026-02-17 13:15 | 44.82347 | 20.29782 | 310 ft | 34 kts | 301° |
| 2026-02-17 13:15 | 44.82443 | 20.29565 | 307 ft | 22 kts | 302° |
| 2026-02-17 13:16 | 44.82500 | 20.29435 | 307 ft | 13 kts | 301° |
| 2026-02-17 13:16 | 44.82555 | 20.29313 | 306 ft | 17 kts | 302° |
| 2026-02-17 13:16 | 44.80976 | 20.32860 | 411 ft | 12 kts | 303° |
| 2026-02-17 13:16 | 44.81489 | 20.31707 | 315 ft | 131 kts | 303° |
| 2026-02-17 13:17 | 44.80142 | 20.34748 | 744 ft | 133 kts | 302° |
| 2026-02-17 13:17 | 44.81606 | 20.31442 | 309 ft | 124 kts | 304° |
| 2026-02-17 13:17 | 44.82009 | 20.30543 | 305 ft | 88 kts | 302° |
| 2026-02-17 13:17 | 44.82257 | 20.29984 | 307 ft | 46 kts | 302° |
| 2026-02-17 13:18 | 44.82390 | 20.29686 | 307 ft | 32 kts | 302° |
| 2026-02-17 13:18 | 44.82492 | 20.29454 | 308 ft | 25 kts | 302° |
| 2026-02-17 13:18 | 44.82580 | 20.29257 | 306 ft | 20 kts | 302° |
| 2026-02-17 13:19 | 44.82607 | 20.29000 | 307 ft | 8 kts | 251° |
| 2026-02-17 13:19 | 44.82599 | 20.28974 | 307 ft | 0 kts | 242° |
| 2026-02-17 13:19 | 44.82596 | 20.28968 | 307 ft | 2 kts | 242° |
| 2026-02-17 13:19 | 44.82581 | 20.28935 | 307 ft | 5 kts | 232° |
| 2026-02-17 13:20 | 44.82553 | 20.28896 | 306 ft | 8 kts | 219° |
| 2026-02-17 13:20 | 44.82500 | 20.28844 | 307 ft | 9 kts | 213° |
| 2026-02-17 13:20 | 44.82449 | 20.28797 | 306 ft | 8 kts | 213° |
| 2026-02-17 13:20 | 44.82403 | 20.28762 | 307 ft | 7 kts | 205° |
| 2026-02-17 13:21 | 44.82362 | 20.28733 | 306 ft | 6 kts | 210° |
| 2026-02-17 13:21 | 44.82331 | 20.28706 | 308 ft | 2 kts | 212° |
| 2026-02-17 13:21 | 44.82326 | 20.28701 | 308 ft | 0 kts | 212° |